Time;durP1;ratioP1;P1;durP2;ratioP2;P2;SDS_P1;SDS_P2;PMS_P1;PMS_P2;Temp;Humidity;BMP_temperature;BMP_pressure;BME280_temperature;BME280_humidity;BME280_pressure;Samples;Min_cycle;Max_cycle;Signal;HPM_P1;HPM_P2
2023/04/06 00:02:14;;;;;;;27.35;17.02;;;;;;;;;;5046726;28;20043;-65
2023/04/06 00:04:40;;;;;;;29.92;17.17;;;;;;;;;;5057611;28;20099;-65
2023/04/06 00:07:05;;;;;;;25.45;17.20;;;;;;;;;;5054662;28;20571;-65
2023/04/06 00:09:30;;;;;;;24.00;17.02;;;;;;;;;;5074449;28;20024;-65
2023/04/06 00:11:56;;;;;;;21.27;16.30;;;;;;;;;;5057327;28;20837;-65
2023/04/06 00:14:21;;;;;;;22.52;17.08;;;;;;;;;;5051952;28;20031;-65
2023/04/06 00:16:46;;;;;;;22.35;16.33;;;;;;;;;;5052949;28;20106;-65
2023/04/06 00:19:12;;;;;;;21.60;16.65;;;;;;;;;;5051821;28;20025;-65
2023/04/06 00:21:37;;;;;;;25.85;16.98;;;;;;;;;;5047338;28;20135;-65
2023/04/06 00:24:03;;;;;;;27.02;16.83;;;;;;;;;;5062233;28;20849;-65
2023/04/06 00:26:29;;;;;;;23.95;17.05;;;;;;;;;;5052951;28;20032;-65
2023/04/06 00:28:54;;;;;;;25.90;16.27;;;;;;;;;;5064153;28;20565;-65
2023/04/06 00:31:20;;;;;;;23.40;15.93;;;;;;;;;;5053324;28;20113;-65
2023/04/06 00:33:45;;;;;;;25.80;16.83;;;;;;;;;;5064143;28;20110;-65
2023/04/06 00:36:10;;;;;;;28.00;16.80;;;;;;;;;;5053984;28;20095;-65
2023/04/06 00:38:36;;;;;;;24.75;17.58;;;;;;;;;;5055104;28;20028;-65
2023/04/06 00:41:02;;;;;;;25.42;17.45;;;;;;;;;;5061802;28;20031;-65
2023/04/06 00:43:27;;;;;;;24.52;16.60;;;;;;;;;;5061511;28;20044;-65
2023/04/06 00:45:53;;;;;;;22.17;16.63;;;;;;;;;;5065695;28;20554;-65
2023/04/06 00:48:18;;;;;;;23.65;17.33;;;;;;;;;;5049253;28;20096;-65
2023/04/06 00:50:43;;;;;;;26.25;17.45;;;;;;;;;;5052121;28;20119;-65
2023/04/06 00:53:09;;;;;;;24.05;16.92;;;;;;;;;;5056773;28;20550;-65
2023/04/06 00:55:35;;;;;;;24.08;16.58;;;;;;;;;;5053687;28;20042;-65
2023/04/06 00:58:01;;;;;;;25.90;16.98;;;;;;;;;;5049116;28;20486;-65
2023/04/06 01:00:27;;;;;;;25.58;16.88;;;;;;;;;;5053708;28;20036;-65
2023/04/06 01:02:52;;;;;;;25.67;16.42;;;;;;;;;;5068288;28;20021;-65
2023/04/06 01:05:18;;;;;;;30.75;18.50;;;;;;;;;;5052866;28;20032;-65
2023/04/06 01:07:43;;;;;;;24.30;17.83;;;;;;;;;;5061937;28;20025;-65
2023/04/06 01:10:08;;;;;;;29.90;17.35;;;;;;;;;;5057045;28;20082;-65
2023/04/06 01:12:34;;;;;;;23.58;17.38;;;;;;;;;;5053778;28;20064;-65
2023/04/06 01:14:59;;;;;;;31.65;18.48;;;;;;;;;;5053990;28;20859;-66
2023/04/06 01:17:24;;;;;;;23.10;17.50;;;;;;;;;;5032119;28;20035;-66
2023/04/06 01:19:51;;;;;;;26.50;17.75;;;;;;;;;;5056911;28;20032;-66
2023/04/06 01:22:16;;;;;;;20.13;15.90;;;;;;;;;;5056342;28;20948;-66
2023/04/06 01:24:42;;;;;;;25.98;17.98;;;;;;;;;;5054979;28;20028;-66
2023/04/06 01:27:07;;;;;;;24.58;17.38;;;;;;;;;;5054409;28;20036;-66
2023/04/06 01:29:32;;;;;;;30.35;18.23;;;;;;;;;;5064211;28;20038;-66
2023/04/06 01:31:57;;;;;;;29.33;17.35;;;;;;;;;;5052166;28;20021;-66
2023/04/06 01:34:23;;;;;;;27.13;18.20;;;;;;;;;;5066968;28;20017;-66
2023/04/06 01:36:48;;;;;;;29.80;18.13;;;;;;;;;;5066128;28;20382;-65
2023/04/06 01:39:13;;;;;;;30.65;18.38;;;;;;;;;;5081396;28;20032;-65
2023/04/06 01:41:39;;;;;;;25.15;16.75;;;;;;;;;;5066090;28;20028;-65
2023/04/06 01:44:04;;;;;;;25.23;17.73;;;;;;;;;;5058969;28;20028;-66
2023/04/06 01:46:30;;;;;;;30.55;18.35;;;;;;;;;;5061940;28;20082;-66
2023/04/06 01:48:55;;;;;;;24.70;17.45;;;;;;;;;;5063751;28;20020;-65
2023/04/06 01:51:20;;;;;;;26.17;17.40;;;;;;;;;;5068157;28;20040;-65
2023/04/06 01:53:45;;;;;;;28.25;18.45;;;;;;;;;;5053332;28;21251;-65
2023/04/06 01:56:11;;;;;;;27.58;17.92;;;;;;;;;;5045818;28;21009;-66
2023/04/06 01:58:36;;;;;;;27.50;19.30;;;;;;;;;;5066960;28;20008;-65
2023/04/06 02:01:01;;;;;;;25.30;17.98;;;;;;;;;;5061985;28;20037;-66
2023/04/06 02:03:27;;;;;;;26.23;18.65;;;;;;;;;;5072957;28;20032;-66
2023/04/06 02:05:52;;;;;;;32.25;19.85;;;;;;;;;;5055174;28;20560;-65
2023/04/06 02:08:17;;;;;;;26.75;18.60;;;;;;;;;;5059613;28;20017;-65
2023/04/06 02:10:43;;;;;;;28.92;19.17;;;;;;;;;;5073689;28;20059;-65
2023/04/06 02:13:08;;;;;;;30.83;18.83;;;;;;;;;;5067946;28;20526;-65
2023/04/06 02:15:33;;;;;;;30.05;18.83;;;;;;;;;;5036981;28;20024;-65
2023/04/06 02:17:59;;;;;;;28.42;17.30;;;;;;;;;;5055451;28;20475;-65
2023/04/06 02:20:24;;;;;;;29.85;19.23;;;;;;;;;;5057258;28;20044;-65
2023/04/06 02:22:50;;;;;;;28.70;18.23;;;;;;;;;;5053815;28;20032;-65
2023/04/06 02:25:15;;;;;;;25.67;18.85;;;;;;;;;;5052878;28;20795;-66
2023/04/06 02:27:40;;;;;;;24.45;19.13;;;;;;;;;;5053018;28;20024;-65
2023/04/06 02:30:06;;;;;;;25.55;19.52;;;;;;;;;;5056566;28;20047;-65
2023/04/06 02:32:31;;;;;;;27.77;19.23;;;;;;;;;;5035821;28;20558;-66
2023/04/06 02:34:57;;;;;;;29.10;18.33;;;;;;;;;;5055813;28;20031;-65
2023/04/06 02:37:23;;;;;;;30.00;19.90;;;;;;;;;;5063498;28;20020;-65
2023/04/06 02:39:49;;;;;;;30.55;18.90;;;;;;;;;;5054059;28;20023;-65
2023/04/06 02:42:15;;;;;;;26.90;18.42;;;;;;;;;;5053693;28;20847;-65
2023/04/06 02:44:40;;;;;;;32.45;20.10;;;;;;;;;;5054264;28;20846;-65
2023/04/06 02:47:06;;;;;;;28.52;19.48;;;;;;;;;;5055227;28;20119;-65
2023/04/06 02:49:31;;;;;;;28.65;19.17;;;;;;;;;;5060298;28;20033;-65
2023/04/06 02:51:56;;;;;;;28.05;18.75;;;;;;;;;;5069600;28;20457;-67
2023/04/06 02:54:21;;;;;;;25.92;18.25;;;;;;;;;;5059251;28;20058;-65
2023/04/06 02:56:47;;;;;;;27.63;18.25;;;;;;;;;;5060738;28;20048;-66
2023/04/06 02:59:12;;;;;;;27.27;19.25;;;;;;;;;;5057222;28;20795;-65
2023/04/06 03:01:37;;;;;;;27.75;18.60;;;;;;;;;;5061633;28;20028;-65
2023/04/06 03:04:03;;;;;;;29.80;18.98;;;;;;;;;;5044842;28;20039;-65
2023/04/06 03:06:28;;;;;;;25.73;18.67;;;;;;;;;;5056136;28;20024;-65
2023/04/06 03:08:53;;;;;;;25.70;17.92;;;;;;;;;;5055858;28;20032;-65
2023/04/06 03:11:18;;;;;;;32.35;18.27;;;;;;;;;;5065085;28;20078;-65
2023/04/06 03:13:44;;;;;;;27.80;17.50;;;;;;;;;;5065823;28;20032;-65
2023/04/06 03:16:09;;;;;;;26.08;18.15;;;;;;;;;;5062490;28;20931;-65
2023/04/06 03:18:35;;;;;;;27.67;19.02;;;;;;;;;;5050765;28;20425;-65
2023/04/06 03:21:00;;;;;;;32.00;19.42;;;;;;;;;;5069887;28;20100;-65
2023/04/06 03:23:26;;;;;;;26.45;19.02;;;;;;;;;;5071384;28;20487;-65
2023/04/06 03:25:51;;;;;;;23.10;18.60;;;;;;;;;;5063577;28;20063;-65
2023/04/06 03:28:16;;;;;;;29.33;17.98;;;;;;;;;;5072599;28;20020;-65
2023/04/06 03:30:42;;;;;;;27.38;19.23;;;;;;;;;;5076739;28;20020;-65
2023/04/06 03:33:07;;;;;;;30.05;17.67;;;;;;;;;;5059222;28;20030;-65
2023/04/06 03:35:32;;;;;;;24.38;17.27;;;;;;;;;;5054921;28;20764;-65
2023/04/06 03:37:57;;;;;;;31.50;17.88;;;;;;;;;;5054815;28;20020;-65
2023/04/06 03:40:23;;;;;;;25.77;17.77;;;;;;;;;;5051933;28;20790;-65
2023/04/06 03:42:48;;;;;;;25.98;17.70;;;;;;;;;;5060360;28;20024;-65
2023/04/06 03:45:13;;;;;;;28.55;18.92;;;;;;;;;;5060295;28;20103;-65
2023/04/06 03:47:39;;;;;;;36.97;19.02;;;;;;;;;;5055220;28;20052;-65
2023/04/06 03:50:04;;;;;;;28.88;18.48;;;;;;;;;;5056700;28;20061;-65
2023/04/06 03:52:30;;;;;;;28.60;18.65;;;;;;;;;;5081719;28;20036;-65
2023/04/06 03:54:55;;;;;;;27.27;19.23;;;;;;;;;;5058832;28;20043;-65
2023/04/06 03:57:20;;;;;;;32.40;19.38;;;;;;;;;;5078491;28;20031;-65
2023/04/06 03:59:46;;;;;;;27.90;19.15;;;;;;;;;;5055131;28;20091;-65
2023/04/06 04:02:11;;;;;;;25.05;17.85;;;;;;;;;;5059168;28;20058;-65
2023/04/06 04:04:36;;;;;;;27.23;17.90;;;;;;;;;;5055835;28;20028;-65
2023/04/06 04:07:01;;;;;;;26.15;17.52;;;;;;;;;;5054090;28;20021;-65
2023/04/06 04:09:27;;;;;;;29.67;18.92;;;;;;;;;;5054552;28;20039;-65
2023/04/06 04:11:52;;;;;;;27.88;18.58;;;;;;;;;;5063979;28;20052;-65
2023/04/06 04:14:17;;;;;;;34.83;18.98;;;;;;;;;;5062131;28;20031;-66
2023/04/06 04:16:43;;;;;;;23.98;17.63;;;;;;;;;;5064207;28;20032;-66
2023/04/06 04:19:08;;;;;;;30.35;17.90;;;;;;;;;;5052684;28;20383;-66
2023/04/06 04:21:33;;;;;;;28.08;18.08;;;;;;;;;;5051456;28;20037;-65
2023/04/06 04:23:59;;;;;;;27.92;16.75;;;;;;;;;;5051999;28;20032;-65
2023/04/06 04:26:24;;;;;;;27.75;17.80;;;;;;;;;;5054119;28;20532;-65
2023/04/06 04:28:49;;;;;;;30.33;18.25;;;;;;;;;;5051873;28;20027;-65
2023/04/06 04:31:17;;;;;;;25.13;16.98;;;;;;;;;;5053328;28;20032;-65
2023/04/06 04:33:43;;;;;;;27.02;17.30;;;;;;;;;;5055339;28;20032;-65
2023/04/06 04:36:09;;;;;;;28.35;18.73;;;;;;;;;;5059436;28;20025;-65
2023/04/06 04:38:35;;;;;;;25.73;18.70;;;;;;;;;;5058302;28;20297;-65
2023/04/06 04:41:00;;;;;;;26.30;16.92;;;;;;;;;;5063917;28;20024;-65
2023/04/06 04:43:26;;;;;;;28.02;18.95;;;;;;;;;;5050534;28;20039;-66
2023/04/06 04:45:52;;;;;;;26.67;18.08;;;;;;;;;;5049906;28;20119;-65
2023/04/06 04:48:17;;;;;;;23.63;17.35;;;;;;;;;;5050398;28;20133;-66
2023/04/06 04:50:42;;;;;;;24.08;17.33;;;;;;;;;;5061499;28;20099;-65
2023/04/06 04:53:08;;;;;;;23.90;17.40;;;;;;;;;;5065909;28;20043;-65
2023/04/06 04:55:33;;;;;;;27.80;18.33;;;;;;;;;;5047175;28;20137;-65
2023/04/06 04:57:58;;;;;;;23.60;16.40;;;;;;;;;;5049791;28;20039;-65
2023/04/06 05:00:24;;;;;;;29.77;17.30;;;;;;;;;;5043386;28;20943;-65
2023/04/06 05:02:49;;;;;;;22.67;16.10;;;;;;;;;;5038623;28;20067;-65
2023/04/06 05:05:14;;;;;;;24.08;16.55;;;;;;;;;;5054799;28;20024;-65
2023/04/06 05:07:40;;;;;;;28.08;15.95;;;;;;;;;;5055324;28;20070;-65
2023/04/06 05:10:05;;;;;;;25.80;16.65;;;;;;;;;;5062438;28;20036;-66
2023/04/06 05:12:31;;;;;;;25.00;17.05;;;;;;;;;;5061142;28;20123;-66
2023/04/06 05:14:56;;;;;;;23.98;16.02;;;;;;;;;;5053565;28;20905;-66
2023/04/06 05:17:21;;;;;;;21.50;15.45;;;;;;;;;;5060743;28;20028;-66
2023/04/06 05:19:46;;;;;;;22.27;15.68;;;;;;;;;;5071598;28;20393;-66
2023/04/06 05:22:14;;;;;;;26.70;14.32;;;;;;;;;;5056715;28;20032;-65
2023/04/06 05:24:39;;;;;;;23.60;15.80;;;;;;;;;;5068201;28;20020;-65
2023/04/06 05:27:05;;;;;;;21.67;14.48;;;;;;;;;;5058741;28;20034;-65
2023/04/06 05:29:30;;;;;;;22.05;14.70;;;;;;;;;;5052011;28;20044;-65
2023/04/06 05:31:55;;;;;;;22.23;14.63;;;;;;;;;;5056551;28;20089;-65
2023/04/06 05:34:21;;;;;;;19.15;14.55;;;;;;;;;;5057673;28;20478;-65
2023/04/06 05:36:46;;;;;;;20.05;14.00;;;;;;;;;;5065913;28;20066;-65
2023/04/06 05:39:12;;;;;;;23.67;14.85;;;;;;;;;;5070910;28;20036;-65
2023/04/06 05:41:37;;;;;;;21.50;14.52;;;;;;;;;;5050726;28;20028;-66
2023/04/06 05:44:03;;;;;;;24.67;15.55;;;;;;;;;;5063863;28;20134;-65
2023/04/06 05:46:28;;;;;;;22.52;15.30;;;;;;;;;;5058391;28;20074;-65
2023/04/06 05:48:53;;;;;;;25.58;15.40;;;;;;;;;;5053581;28;20408;-66
2023/04/06 05:51:19;;;;;;;24.90;14.05;;;;;;;;;;5063430;28;20035;-65
2023/04/06 05:53:44;;;;;;;19.42;14.13;;;;;;;;;;5053503;28;20085;-65
2023/04/06 05:56:09;;;;;;;17.58;14.00;;;;;;;;;;5055769;28;20031;-65
2023/04/06 05:58:35;;;;;;;21.33;13.25;;;;;;;;;;5036052;28;20837;-65
2023/04/06 06:01:00;;;;;;;24.45;13.15;;;;;;;;;;5044965;28;20441;-65
2023/04/06 06:03:26;;;;;;;20.40;12.40;;;;;;;;;;5049516;28;20504;-65
2023/04/06 06:05:51;;;;;;;25.33;12.65;;;;;;;;;;5050503;28;20527;-65
2023/04/06 06:08:16;;;;;;;24.02;12.32;;;;;;;;;;5054241;28;20451;-65
2023/04/06 06:10:42;;;;;;;18.10;12.55;;;;;;;;;;5056087;28;20028;-65
2023/04/06 06:13:08;;;;;;;19.35;11.90;;;;;;;;;;5060055;28;20035;-65
2023/04/06 06:15:33;;;;;;;18.15;12.27;;;;;;;;;;5053559;28;20054;-65
2023/04/06 06:17:58;;;;;;;20.30;12.15;;;;;;;;;;5035067;28;20027;-65
2023/04/06 06:20:24;;;;;;;20.33;12.50;;;;;;;;;;5032428;28;20806;-65
2023/04/06 06:22:50;;;;;;;15.55;11.95;;;;;;;;;;5031691;28;20414;-65
2023/04/06 06:25:15;;;;;;;25.85;12.02;;;;;;;;;;5033447;28;20135;-65
2023/04/06 06:27:41;;;;;;;17.13;11.73;;;;;;;;;;5042664;28;20501;-65
2023/04/06 06:30:07;;;;;;;16.48;12.05;;;;;;;;;;5040866;28;20039;-65
2023/04/06 06:32:32;;;;;;;17.70;11.82;;;;;;;;;;5034756;28;20028;-65
2023/04/06 06:34:57;;;;;;;15.10;11.60;;;;;;;;;;5047719;28;20024;-65
2023/04/06 06:37:23;;;;;;;17.58;11.65;;;;;;;;;;5075464;28;20074;-65
2023/04/06 06:39:48;;;;;;;26.42;11.05;;;;;;;;;;5074885;28;20027;-65
2023/04/06 06:42:13;;;;;;;17.48;11.63;;;;;;;;;;5071606;28;20070;-65
2023/04/06 06:44:39;;;;;;;19.92;11.77;;;;;;;;;;5072269;28;20538;-65
2023/04/06 06:47:04;;;;;;;22.02;12.95;;;;;;;;;;5072280;28;20025;-65
2023/04/06 06:49:29;;;;;;;17.42;12.35;;;;;;;;;;5072702;28;20032;-65
2023/04/06 06:51:55;;;;;;;18.95;11.52;;;;;;;;;;5072627;28;20087;-65
2023/04/06 06:54:20;;;;;;;16.05;11.52;;;;;;;;;;5071825;28;20091;-65
2023/04/06 06:56:45;;;;;;;20.05;11.88;;;;;;;;;;5063569;28;20028;-65
2023/04/06 06:59:11;;;;;;;21.33;11.90;;;;;;;;;;5072228;28;20118;-65
2023/04/06 07:01:36;;;;;;;14.85;10.88;;;;;;;;;;5072367;28;20024;-65
2023/04/06 07:04:01;;;;;;;20.38;11.35;;;;;;;;;;5071997;28;20021;-65
2023/04/06 07:06:26;;;;;;;15.80;10.45;;;;;;;;;;5077651;28;20075;-65
2023/04/06 07:08:52;;;;;;;20.75;11.60;;;;;;;;;;5046362;28;20894;-65
2023/04/06 07:11:17;;;;;;;19.23;11.82;;;;;;;;;;5072591;28;20016;-65
2023/04/06 07:13:42;;;;;;;18.00;10.80;;;;;;;;;;5072141;28;20057;-65
2023/04/06 07:16:08;;;;;;;15.35;10.82;;;;;;;;;;5060387;28;20017;-65
2023/04/06 07:18:33;;;;;;;20.48;11.93;;;;;;;;;;5056633;28;20013;-65
2023/04/06 07:20:58;;;;;;;20.08;10.60;;;;;;;;;;5074305;28;20033;-65
2023/04/06 07:23:24;;;;;;;19.20;11.52;;;;;;;;;;5072221;28;20506;-65
2023/04/06 07:25:52;;;;;;;17.70;11.30;;;;;;;;;;5072415;28;20111;-65
2023/04/06 07:28:17;;;;;;;18.05;10.52;;;;;;;;;;5071876;28;20025;-65
2023/04/06 07:30:42;;;;;;;23.60;10.43;;;;;;;;;;5072620;28;20032;-65
2023/04/06 07:33:08;;;;;;;16.70;10.43;;;;;;;;;;5073143;28;20017;-65
2023/04/06 07:35:34;;;;;;;15.75;10.88;;;;;;;;;;5071798;28;20071;-65
2023/04/06 07:38:00;;;;;;;14.73;10.32;;;;;;;;;;5071301;28;20032;-65
2023/04/06 07:40:26;;;;;;;22.20;11.30;;;;;;;;;;5077343;28;20031;-65
2023/04/06 07:42:51;;;;;;;16.77;9.95;;;;;;;;;;5091391;28;20035;-65
2023/04/06 07:45:17;;;;;;;16.75;10.23;;;;;;;;;;5072715;28;20074;-65
2023/04/06 07:47:42;;;;;;;17.98;10.18;;;;;;;;;;5071318;28;20017;-65
2023/04/06 07:50:08;;;;;;;15.75;9.60;;;;;;;;;;5071475;28;20024;-66
2023/04/06 07:52:33;;;;;;;16.35;10.23;;;;;;;;;;5047239;28;20028;-65
2023/04/06 07:54:58;;;;;;;20.42;9.82;;;;;;;;;;5027429;28;20033;-65
2023/04/06 07:57:24;;;;;;;19.65;10.57;;;;;;;;;;5033607;28;20134;-65
2023/04/06 07:59:49;;;;;;;13.32;9.77;;;;;;;;;;5035425;28;20870;-65
2023/04/06 08:02:15;;;;;;;15.02;10.07;;;;;;;;;;5034391;28;20034;-66
2023/04/06 08:04:40;;;;;;;13.45;9.52;;;;;;;;;;5048321;28;20034;-65
2023/04/06 08:07:06;;;;;;;16.88;10.27;;;;;;;;;;5029005;28;20035;-65
2023/04/06 08:09:31;;;;;;;15.77;11.27;;;;;;;;;;5043929;28;20135;-65
2023/04/06 08:11:57;;;;;;;22.45;10.80;;;;;;;;;;5044028;28;20889;-65
2023/04/06 08:14:22;;;;;;;23.70;10.85;;;;;;;;;;5060588;28;20104;-64
2023/04/06 08:16:47;;;;;;;19.60;9.80;;;;;;;;;;5077428;28;20028;-64
2023/04/06 08:19:13;;;;;;;18.48;10.88;;;;;;;;;;5077915;28;20027;-65
2023/04/06 08:21:39;;;;;;;17.42;10.35;;;;;;;;;;5037664;28;20894;-65
2023/04/06 08:24:05;;;;;;;18.27;10.77;;;;;;;;;;5061704;28;20057;-67
2023/04/06 08:26:31;;;;;;;18.10;10.50;;;;;;;;;;5071261;28;20024;-67
2023/04/06 08:28:56;;;;;;;17.90;10.70;;;;;;;;;;5077295;28;20112;-67
2023/04/06 08:31:21;;;;;;;21.63;11.63;;;;;;;;;;5071207;28;20025;-65
2023/04/06 08:33:47;;;;;;;17.52;10.40;;;;;;;;;;5077247;28;20378;-65
2023/04/06 08:36:13;;;;;;;20.25;11.85;;;;;;;;;;5073571;28;20071;-64
2023/04/06 08:38:39;;;;;;;19.52;10.90;;;;;;;;;;5072306;28;20935;-64
2023/04/06 08:41:12;;;;;;;20.83;10.90;;;;;;;;;;5045575;28;20036;-64
2023/04/06 08:43:48;;;;;;;20.17;10.20;;;;;;;;;;5036229;28;20247;-64
2023/04/06 08:46:14;;;;;;;17.17;11.27;;;;;;;;;;5037534;28;20031;-64
2023/04/06 08:48:40;;;;;;;22.88;11.25;;;;;;;;;;5043678;28;20030;-64
2023/04/06 08:51:05;;;;;;;23.27;11.88;;;;;;;;;;5029942;28;20035;-64
2023/04/06 08:53:31;;;;;;;15.27;10.60;;;;;;;;;;5032189;28;20131;-64
2023/04/06 08:55:57;;;;;;;24.38;10.75;;;;;;;;;;5045064;28;20029;-64
2023/04/06 08:58:23;;;;;;;14.05;10.25;;;;;;;;;;5075049;28;20487;-64
2023/04/06 09:00:49;;;;;;;23.33;10.82;;;;;;;;;;5073547;28;20091;-63
2023/04/06 09:03:15;;;;;;;19.10;10.88;;;;;;;;;;5074012;28;20037;-64
2023/04/06 09:05:40;;;;;;;20.95;12.07;;;;;;;;;;5072901;28;20078;-65
2023/04/06 09:08:07;;;;;;;18.45;10.60;;;;;;;;;;5060923;28;20356;-66
2023/04/06 09:10:32;;;;;;;16.10;10.50;;;;;;;;;;5044523;28;20024;-64
2023/04/06 09:13:07;;;;;;;25.00;11.18;;;;;;;;;;5060975;28;20081;-64
2023/04/06 09:15:32;;;;;;;16.48;10.60;;;;;;;;;;5064167;28;20024;-64
2023/04/06 09:17:58;;;;;;;19.70;10.90;;;;;;;;;;5041883;28;20037;-64
2023/04/06 09:20:26;;;;;;;20.48;10.00;;;;;;;;;;5042421;28;20035;-64
2023/04/06 09:22:51;;;;;;;16.90;9.75;;;;;;;;;;5046268;28;20206;-64
2023/04/06 09:25:23;;;;;;;20.40;10.25;;;;;;;;;;5045404;28;20953;-64
2023/04/06 09:27:49;;;;;;;15.70;10.48;;;;;;;;;;5033885;28;20028;-64
2023/04/06 09:30:16;;;;;;;13.85;8.77;;;;;;;;;;5033419;28;20025;-64
2023/04/06 09:32:48;;;;;;;16.45;9.88;;;;;;;;;;5032905;28;20562;-65
2023/04/06 09:35:14;;;;;;;11.88;8.68;;;;;;;;;;5041491;28;20027;-66
2023/04/06 09:37:39;;;;;;;15.50;9.27;;;;;;;;;;5034990;28;20135;-63
2023/04/06 09:40:06;;;;;;;12.80;7.85;;;;;;;;;;5048985;28;20913;-64
2023/04/06 09:42:31;;;;;;;12.93;7.60;;;;;;;;;;5031105;28;20132;-64
2023/04/06 09:44:56;;;;;;;15.70;9.07;;;;;;;;;;5032357;28;20024;-64
2023/04/06 09:47:23;;;;;;;11.30;7.82;;;;;;;;;;5034717;28;20924;-64
2023/04/06 09:49:49;;;;;;;14.18;8.38;;;;;;;;;;5041657;28;20135;-65
2023/04/06 09:52:16;;;;;;;11.48;8.15;;;;;;;;;;5033938;28;20025;-64
2023/04/06 09:54:42;;;;;;;12.57;7.82;;;;;;;;;;5032909;28;20187;-64
2023/04/06 09:57:20;;;;;;;16.23;9.18;;;;;;;;;;5036215;28;20091;-64
2023/04/06 09:59:45;;;;;;;15.85;9.23;;;;;;;;;;5047329;28;20024;-64
2023/04/06 10:02:15;;;;;;;17.23;7.72;;;;;;;;;;5055143;28;20776;-64
2023/04/06 10:04:43;;;;;;;13.13;7.72;;;;;;;;;;5033995;28;20032;-64
2023/04/06 10:07:11;;;;;;;19.42;8.25;;;;;;;;;;5036751;28;20097;-64
2023/04/06 10:09:37;;;;;;;13.15;8.85;;;;;;;;;;5050127;28;20020;-64
2023/04/06 10:12:06;;;;;;;15.18;7.72;;;;;;;;;;5082115;28;20032;-65
2023/04/06 10:14:35;;;;;;;17.60;8.27;;;;;;;;;;5070768;28;20029;-65
2023/04/06 10:17:01;;;;;;;11.15;7.43;;;;;;;;;;5040881;28;20123;-64
2023/04/06 10:19:29;;;;;;;12.63;8.35;;;;;;;;;;5040170;28;20058;-66
2023/04/06 10:21:55;;;;;;;12.52;6.97;;;;;;;;;;5032312;28;20060;-64
2023/04/06 10:24:21;;;;;;;14.10;7.68;;;;;;;;;;5038155;28;20877;-64
2023/04/06 10:27:01;;;;;;;16.48;7.78;;;;;;;;;;5046836;28;20033;-64
2023/04/06 10:29:27;;;;;;;10.40;7.18;;;;;;;;;;5017070;28;20028;-66
2023/04/06 10:31:52;;;;;;;9.43;6.45;;;;;;;;;;5033222;28;20846;-64
2023/04/06 10:34:18;;;;;;;7.05;4.80;;;;;;;;;;5046927;28;20024;-65
2023/04/06 10:36:43;;;;;;;9.90;5.53;;;;;;;;;;5071771;28;20513;-64
2023/04/06 10:39:08;;;;;;;9.85;6.40;;;;;;;;;;5078200;28;20040;-66
2023/04/06 10:41:36;;;;;;;10.70;6.60;;;;;;;;;;5069605;28;20098;-64
2023/04/06 10:44:02;;;;;;;7.00;5.25;;;;;;;;;;5059620;28;20028;-65
2023/04/06 10:46:31;;;;;;;10.75;6.43;;;;;;;;;;5071314;28;20064;-64
2023/04/06 10:48:56;;;;;;;9.57;7.10;;;;;;;;;;5074567;28;20063;-64
2023/04/06 10:51:27;;;;;;;8.02;6.18;;;;;;;;;;5066464;28;20425;-64
2023/04/06 10:53:53;;;;;;;12.82;6.72;;;;;;;;;;5060726;28;20759;-64
2023/04/06 10:56:21;;;;;;;8.82;7.30;;;;;;;;;;5068473;28;20496;-64
2023/04/06 10:58:46;;;;;;;11.63;7.63;;;;;;;;;;5065067;28;20028;-64
2023/04/06 11:01:12;;;;;;;13.57;7.97;;;;;;;;;;5063523;28;20024;-64
2023/04/06 11:03:44;;;;;;;11.88;7.60;;;;;;;;;;5071433;28;20028;-64
2023/04/06 11:06:09;;;;;;;12.90;6.90;;;;;;;;;;5065876;28;20021;-64
2023/04/06 11:08:36;;;;;;;9.25;7.32;;;;;;;;;;5061947;28;20041;-64
2023/04/06 11:11:18;;;;;;;12.13;7.72;;;;;;;;;;5076462;28;20035;-64
2023/04/06 11:13:48;;;;;;;10.40;7.80;;;;;;;;;;5063331;28;20554;-64
2023/04/06 11:16:21;;;;;;;9.90;7.47;;;;;;;;;;5063187;28;20074;-64
2023/04/06 11:18:56;;;;;;;13.15;7.93;;;;;;;;;;5059101;28;20859;-64
2023/04/06 11:21:46;;;;;;;13.10;8.52;;;;;;;;;;5066587;28;20044;-64
2023/04/06 11:24:13;;;;;;;13.25;7.85;;;;;;;;;;5061151;28;20048;-65
2023/04/06 11:26:45;;;;;;;10.88;7.63;;;;;;;;;;5051420;28;20063;-64
2023/04/06 11:29:16;;;;;;;11.02;8.40;;;;;;;;;;5062158;28;20063;-65
2023/04/06 11:31:45;;;;;;;14.23;7.80;;;;;;;;;;5072338;28;20021;-65
2023/04/06 11:34:17;;;;;;;12.32;8.35;;;;;;;;;;5067837;28;20043;-64
2023/04/06 11:36:44;;;;;;;11.23;8.60;;;;;;;;;;5061990;28;20077;-64
2023/04/06 11:39:10;;;;;;;13.20;7.95;;;;;;;;;;5060571;28;20098;-64
2023/04/06 11:41:35;;;;;;;13.50;8.73;;;;;;;;;;5060830;28;20585;-64
2023/04/06 11:44:02;;;;;;;13.25;9.55;;;;;;;;;;5053461;28;20025;-64
2023/04/06 11:46:27;;;;;;;11.85;9.48;;;;;;;;;;5054934;28;20029;-64
2023/04/06 11:48:57;;;;;;;12.93;8.38;;;;;;;;;;5054127;28;20827;-64
2023/04/06 11:51:26;;;;;;;12.85;9.40;;;;;;;;;;5054160;28;20024;-65
2023/04/06 11:53:51;;;;;;;12.05;8.80;;;;;;;;;;5058756;28;20024;-64
2023/04/06 11:56:24;;;;;;;14.20;8.75;;;;;;;;;;5063718;28;20074;-64
2023/04/06 11:58:49;;;;;;;11.15;9.23;;;;;;;;;;5060638;28;20035;-64
2023/04/06 12:01:15;;;;;;;14.25;9.20;;;;;;;;;;5054508;28;20048;-64
2023/04/06 12:03:40;;;;;;;15.13;8.98;;;;;;;;;;5063357;28;20075;-64
2023/04/06 12:06:05;;;;;;;17.05;10.20;;;;;;;;;;5059603;28;20089;-64
2023/04/06 12:08:30;;;;;;;13.32;10.10;;;;;;;;;;5063551;28;20031;-64
2023/04/06 12:10:56;;;;;;;14.48;10.30;;;;;;;;;;5076793;28;20580;-64
2023/04/06 12:13:21;;;;;;;13.98;9.15;;;;;;;;;;5063796;28;20536;-65
2023/04/06 12:15:46;;;;;;;14.50;10.35;;;;;;;;;;5072021;28;20032;-65
2023/04/06 12:18:12;;;;;;;16.48;9.73;;;;;;;;;;5054696;28;20044;-64
2023/04/06 12:20:37;;;;;;;15.90;10.40;;;;;;;;;;5056571;28;20047;-64
2023/04/06 12:23:02;;;;;;;13.32;10.00;;;;;;;;;;5067982;28;20071;-64
2023/04/06 12:25:27;;;;;;;15.95;9.98;;;;;;;;;;5054369;28;20024;-64
2023/04/06 12:27:53;;;;;;;17.33;11.52;;;;;;;;;;5061878;28;20536;-64
2023/04/06 12:30:18;;;;;;;15.00;10.18;;;;;;;;;;5065130;28;20047;-64
2023/04/06 12:32:43;;;;;;;13.25;10.57;;;;;;;;;;5055421;28;20031;-64
2023/04/06 12:35:09;;;;;;;17.20;10.52;;;;;;;;;;5073288;28;20020;-64
2023/04/06 12:37:34;;;;;;;13.82;11.00;;;;;;;;;;5068646;28;20024;-64
2023/04/06 12:40:00;;;;;;;18.08;11.32;;;;;;;;;;5067969;28;20036;-64
2023/04/06 12:42:26;;;;;;;17.65;12.75;;;;;;;;;;5071570;28;20115;-64
2023/04/06 12:44:51;;;;;;;20.85;11.68;;;;;;;;;;5062972;28;20028;-64
2023/04/06 12:47:17;;;;;;;20.00;12.25;;;;;;;;;;5058946;28;20029;-65
2023/04/06 12:49:43;;;;;;;16.73;11.52;;;;;;;;;;5062477;28;20051;-65
2023/04/06 12:52:08;;;;;;;15.85;12.27;;;;;;;;;;5069353;28;20016;-64
2023/04/06 12:54:34;;;;;;;14.27;10.48;;;;;;;;;;5063694;28;20037;-64
2023/04/06 12:57:00;;;;;;;15.40;10.75;;;;;;;;;;5066110;28;20094;-65
2023/04/06 12:59:26;;;;;;;16.05;11.02;;;;;;;;;;5066278;28;20112;-64
2023/04/06 13:01:52;;;;;;;17.27;10.30;;;;;;;;;;5065335;28;20123;-65
2023/04/06 13:04:17;;;;;;;14.60;10.90;;;;;;;;;;5077323;28;20028;-64
2023/04/06 13:06:42;;;;;;;13.05;9.75;;;;;;;;;;5063211;28;20024;-65
2023/04/06 13:09:08;;;;;;;16.27;11.57;;;;;;;;;;5069855;28;20043;-64
2023/04/06 13:11:33;;;;;;;15.18;11.05;;;;;;;;;;5050834;28;20756;-64
2023/04/06 13:13:58;;;;;;;13.10;9.68;;;;;;;;;;5055722;28;20035;-64
2023/04/06 13:16:24;;;;;;;15.63;9.55;;;;;;;;;;5064714;28;20032;-64
2023/04/06 13:18:49;;;;;;;12.35;8.90;;;;;;;;;;5056207;28;20510;-64
2023/04/06 13:21:20;;;;;;;10.13;8.35;;;;;;;;;;5056691;28;20070;-64
2023/04/06 13:23:45;;;;;;;10.75;8.35;;;;;;;;;;5059811;28;20037;-64
2023/04/06 13:26:13;;;;;;;11.57;7.95;;;;;;;;;;5060505;28;20044;-64
2023/04/06 13:28:38;;;;;;;11.90;7.95;;;;;;;;;;5066141;28;20040;-64
2023/04/06 13:31:04;;;;;;;11.77;8.35;;;;;;;;;;5061585;28;20021;-64
2023/04/06 13:33:30;;;;;;;11.45;8.15;;;;;;;;;;5063117;28;20028;-64
2023/04/06 13:35:55;;;;;;;12.65;8.95;;;;;;;;;;5067342;28;20983;-64
2023/04/06 13:38:21;;;;;;;11.93;7.57;;;;;;;;;;5061344;28;20024;-64
2023/04/06 13:40:46;;;;;;;10.93;7.50;;;;;;;;;;5056167;28;20046;-64
2023/04/06 13:43:11;;;;;;;10.88;7.65;;;;;;;;;;5062927;28;20121;-65
2023/04/06 13:45:37;;;;;;;10.13;7.97;;;;;;;;;;5063098;28;20031;-65
2023/04/06 13:48:02;;;;;;;12.45;7.63;;;;;;;;;;5063307;28;20036;-65
2023/04/06 13:50:28;;;;;;;18.45;7.80;;;;;;;;;;5078495;28;20029;-65
2023/04/06 13:52:53;;;;;;;10.00;7.60;;;;;;;;;;5063402;28;20730;-64
2023/04/06 13:55:19;;;;;;;11.38;7.55;;;;;;;;;;5068685;28;20483;-65
2023/04/06 13:57:44;;;;;;;9.77;7.07;;;;;;;;;;5070896;28;20062;-64
2023/04/06 14:00:12;;;;;;;10.73;7.95;;;;;;;;;;5072445;28;20064;-65
2023/04/06 14:02:37;;;;;;;11.57;8.23;;;;;;;;;;5067978;28;20020;-64
2023/04/06 14:05:03;;;;;;;12.65;7.65;;;;;;;;;;5070534;28;20742;-64
2023/04/06 14:07:28;;;;;;;10.32;7.72;;;;;;;;;;5070284;28;20056;-64
2023/04/06 14:09:53;;;;;;;11.35;7.15;;;;;;;;;;5072409;28;20020;-64
2023/04/06 14:12:19;;;;;;;8.05;6.38;;;;;;;;;;5068618;28;20024;-64
2023/04/06 14:14:44;;;;;;;9.98;6.70;;;;;;;;;;5060507;28;20146;-64